Time;durP1;ratioP1;P1;durP2;ratioP2;P2;SDS_P1;SDS_P2;PMS_P1;PMS_P2;Temp;Humidity;BMP_temperature;BMP_pressure;BME280_temperature;BME280_humidity;BME280_pressure;Samples;Min_cycle;Max_cycle;Signal;HPM_P1;HPM_P2
2022/11/04 00:02:04;;;;;;;23.53;8.70;;;;;;;6.34;99.55;99705.28;4241042;28;21620;-73
2022/11/04 00:04:31;;;;;;;31.70;9.73;;;;;;;6.29;99.28;99697.75;4244919;28;20230;-74
2022/11/04 00:06:57;;;;;;;25.07;9.33;;;;;;;6.26;99.73;99694.56;4237795;28;20230;-75
2022/11/04 00:09:28;;;;;;;25.67;9.13;;;;;;;6.23;99.45;99687.75;4236269;28;20424;-75
2022/11/04 00:14:40;;;;;;;31.50;9.03;;;;;;;6.20;99.98;99680.06;4240532;28;21682;-74
2022/11/04 00:17:20;;;;;;;28.07;9.67;;;;;;;6.25;100.00;99675.25;4247129;28;20781;-74
2022/11/04 00:33:51;;;;;;;21.00;8.77;;;;;;;6.32;100.00;99654.38;4246050;28;20667;-72
2022/11/04 00:36:18;;;;;;;22.03;9.00;;;;;;;6.25;99.97;99658.53;4233867;28;20243;-73
2022/11/04 00:38:44;;;;;;;25.93;9.40;;;;;;;6.25;100.00;99656.75;4239612;28;21669;-72
2022/11/04 00:41:26;;;;;;;24.97;9.07;;;;;;;6.22;100.00;99661.47;4248613;28;20629;-75
2022/11/04 00:43:58;;;;;;;25.00;8.97;;;;;;;6.18;100.00;99658.28;4254026;28;20224;-74
2022/11/04 00:46:26;;;;;;;26.50;9.63;;;;;;;6.09;100.00;99644.06;4247427;28;20230;-77
2022/11/04 00:48:53;;;;;;;31.00;10.17;;;;;;;6.03;100.00;99646.41;4244331;28;20237;-75
2022/11/04 00:51:20;;;;;;;26.43;9.33;;;;;;;6.00;100.00;99638.78;4226230;28;20237;-74
2022/11/04 00:53:47;;;;;;;27.57;9.77;;;;;;;5.99;100.00;99622.06;4233461;28;22254;-73
2022/11/04 00:56:13;;;;;;;32.93;10.63;;;;;;;5.99;100.00;99627.34;4242541;28;22517;-75
2022/11/04 00:58:40;;;;;;;31.77;8.73;;;;;;;6.02;100.00;99626.25;4243547;28;21293;-76
2022/11/04 01:01:11;;;;;;;25.20;10.30;;;;;;;5.95;100.00;99620.69;4245905;28;20257;-77
2022/11/04 01:03:38;;;;;;;24.40;9.27;;;;;;;5.98;100.00;99619.56;4242295;28;20252;-75
2022/11/04 01:06:05;;;;;;;21.93;9.77;;;;;;;5.95;100.00;99619.81;4254268;28;20318;-76
2022/11/04 01:08:31;;;;;;;22.87;9.47;;;;;;;5.96;100.00;99606.50;4245167;28;20250;-75
2022/11/04 01:11:02;;;;;;;29.63;10.47;;;;;;;5.97;100.00;99604.69;4242840;28;20221;-78
2022/11/04 01:13:28;;;;;;;27.50;10.23;;;;;;;5.94;100.00;99595.22;4247832;28;21065;-75
2022/11/04 01:16:02;;;;;;;26.60;10.40;;;;;;;5.96;100.00;99589.81;4258529;28;20237;-73
2022/11/04 01:18:29;;;;;;;26.33;10.47;;;;;;;6.01;100.00;99588.44;4243440;28;20319;-74
2022/11/04 01:21:03;;;;;;;28.37;9.77;;;;;;;6.05;100.00;99589.00;4244846;28;20268;-74
2022/11/04 01:23:30;;;;;;;31.83;10.83;;;;;;;6.11;100.00;99583.16;4249705;28;21138;-73
2022/11/04 01:25:57;;;;;;;27.10;9.57;;;;;;;6.16;100.00;99569.53;4250964;28;20379;-73
2022/11/04 01:28:23;;;;;;;25.47;9.57;;;;;;;6.20;100.00;99578.88;4239319;28;20230;-75
2022/11/04 01:30:50;;;;;;;24.60;9.73;;;;;;;6.18;100.00;99575.53;4254389;28;20433;-76
2022/11/04 01:33:16;;;;;;;26.43;9.80;;;;;;;6.26;100.00;99576.50;4228764;28;20613;-73
2022/11/04 01:35:43;;;;;;;26.43;9.40;;;;;;;6.26;100.00;99576.50;4247513;28;20233;-75
2022/11/04 01:38:09;;;;;;;24.03;10.00;;;;;;;6.26;99.85;99581.78;4243283;28;20243;-74
2022/11/04 01:40:38;;;;;;;24.90;9.47;;;;;;;6.24;100.00;99569.69;4240440;28;20284;-74
2022/11/04 01:43:14;;;;;;;27.53;9.77;;;;;;;6.22;100.00;99564.53;4247007;28;20235;-75
2022/11/04 01:45:43;;;;;;;20.47;9.20;;;;;;;6.18;100.00;99557.88;4246524;28;20667;-72
2022/11/04 01:48:16;;;;;;;32.80;10.37;;;;;;;6.24;100.00;99562.59;4237715;28;20349;-73
2022/11/04 01:50:42;;;;;;;28.63;9.57;;;;;;;6.21;100.00;99557.59;4240363;28;20249;-73
2022/11/04 01:53:14;;;;;;;28.87;12.10;;;;;;;6.17;100.00;99548.28;4229861;28;20712;-74
2022/11/04 01:55:44;;;;;;;22.40;9.63;;;;;;;6.16;100.00;99537.84;4261570;28;20232;-73
2022/11/04 01:58:14;;;;;;;26.23;9.33;;;;;;;6.24;100.00;99540.63;4242619;28;21141;-74
2022/11/04 02:00:42;;;;;;;28.97;10.73;;;;;;;6.24;99.78;99538.00;4252788;28;20242;-74
2022/11/04 02:03:12;;;;;;;24.30;9.60;;;;;;;6.19;99.38;99527.84;4250986;28;21947;-73
2022/11/04 02:05:38;;;;;;;21.17;8.90;;;;;;;6.18;99.64;99515.63;4236254;28;26487;-77
2022/11/04 02:08:05;;;;;;;32.00;10.27;;;;;;;6.23;99.44;99509.94;4246657;28;20228;-75
2022/11/04 02:10:32;;;;;;;21.20;9.00;;;;;;;6.20;99.52;99507.53;4243356;28;20388;-74
2022/11/04 02:13:01;;;;;;;23.03;9.77;;;;;;;6.19;99.51;99506.72;4250735;28;20226;-75
2022/11/04 02:15:45;;;;;;;26.97;9.57;;;;;;;6.26;99.43;99502.53;4240609;28;24729;-75
2022/11/04 02:18:24;;;;;;;27.27;9.93;;;;;;;6.28;98.82;99500.59;4236526;28;20336;-74
2022/11/04 02:20:57;;;;;;;26.03;9.57;;;;;;;6.30;98.33;99503.94;4245881;28;20237;-73
2022/11/04 02:23:36;;;;;;;22.73;9.03;;;;;;;6.34;98.10;99510.59;4253188;28;20390;-75
2022/11/04 02:26:40;;;;;;;20.93;8.77;;;;;;;6.33;98.14;99505.47;4235612;28;20499;-73
2022/11/04 02:29:33;;;;;;;17.60;8.53;;;;;;;6.31;98.03;99505.59;4252030;28;20672;-74
2022/11/04 02:32:11;;;;;;;21.20;9.53;;;;;;;6.31;98.80;99500.31;4230463;28;20337;-74
2022/11/04 02:34:55;;;;;;;26.20;9.03;;;;;;;6.32;98.29;99490.56;4241041;28;22012;-71
2022/11/04 02:37:34;;;;;;;22.57;8.73;;;;;;;6.26;98.56;99486.69;4243282;28;20242;-71
2022/11/04 02:40:05;;;;;;;28.93;9.27;;;;;;;6.23;98.68;99476.41;4245849;28;20739;-72
2022/11/04 02:42:38;;;;;;;26.07;9.20;;;;;;;6.21;98.83;99473.06;4223337;28;20330;-73
2022/11/04 02:45:16;;;;;;;26.07;9.33;;;;;;;6.18;98.88;99476.00;4223674;28;20223;-73
2022/11/04 02:47:44;;;;;;;25.50;8.70;;;;;;;6.16;98.88;99474.44;4246287;28;20246;-70
2022/11/04 02:50:33;;;;;;;24.30;9.03;;;;;;;6.18;99.13;99465.44;4225286;28;20230;-73
2022/11/04 02:53:11;;;;;;;24.77;9.47;;;;;;;6.19;98.94;99464.44;4244040;28;22941;-72
2022/11/04 02:55:42;;;;;;;28.93;8.87;;;;;;;6.17;99.33;99465.56;4248262;28;20289;-74
2022/11/04 02:58:13;;;;;;;27.60;9.50;;;;;;;6.22;98.69;99453.59;4210736;28;22431;-73
2022/11/04 03:00:41;;;;;;;23.10;9.23;;;;;;;6.24;98.75;99462.22;4234644;28;21934;-73
2022/11/04 03:03:14;;;;;;;27.70;9.83;;;;;;;6.24;98.66;99462.22;4237979;28;20238;-73
2022/11/04 03:05:43;;;;;;;25.67;8.43;;;;;;;6.23;98.32;99450.00;4240900;28;20421;-72
2022/11/04 03:08:15;;;;;;;23.27;8.83;;;;;;;6.21;98.80;99453.75;4251517;28;20718;-73
2022/11/04 03:10:44;;;;;;;24.40;8.83;;;;;;;6.21;98.80;99465.16;4246026;28;20378;-73
2022/11/04 03:13:13;;;;;;;28.40;8.97;;;;;;;6.26;98.92;99460.25;4247132;28;20423;-73
2022/11/04 03:15:46;;;;;;;25.10;9.07;;;;;;;6.21;99.10;99461.69;4230581;28;23222;-73
2022/11/04 03:18:30;;;;;;;24.73;9.77;;;;;;;6.24;98.73;99459.56;4249705;28;21083;-72
2022/11/04 03:20:58;;;;;;;22.20;8.50;;;;;;;6.20;98.83;99460.81;4249346;28;21795;-73
2022/11/04 03:23:25;;;;;;;21.07;8.30;;;;;;;6.18;98.53;99457.50;4252282;28;20299;-72
2022/11/04 03:25:54;;;;;;;26.93;8.53;;;;;;;6.23;98.45;99451.81;4248218;28;23282;-73
2022/11/04 03:28:37;;;;;;;24.57;8.60;;;;;;;6.17;98.98;99455.81;4241425;28;20231;-71
2022/11/04 03:31:05;;;;;;;21.73;8.93;;;;;;;6.20;98.56;99446.78;4245679;28;20246;-72
2022/11/04 03:33:41;;;;;;;27.10;9.50;;;;;;;6.16;98.81;99438.31;4238899;28;20235;-71
2022/11/04 03:36:08;;;;;;;24.00;8.23;;;;;;;6.24;98.22;99446.34;4241124;28;20237;-73
2022/11/04 03:38:36;;;;;;;24.57;8.40;;;;;;;6.22;98.74;99437.75;4243313;28;20280;-72
2022/11/04 03:41:06;;;;;;;30.47;9.23;;;;;;;6.21;97.99;99436.09;4250472;28;25741;-72
2022/11/04 03:43:34;;;;;;;18.20;7.53;;;;;;;6.22;98.66;99432.47;4229303;28;20251;-73
2022/11/04 03:46:00;;;;;;;19.73;8.57;;;;;;;6.24;97.88;99425.22;4241077;28;20238;-73
2022/11/04 03:48:30;;;;;;;21.83;8.17;;;;;;;6.29;97.80;99425.63;4240727;28;20238;-73
2022/11/04 03:50:57;;;;;;;22.70;7.63;;;;;;;6.25;97.98;99421.63;4238465;28;20262;-71
2022/11/04 03:53:24;;;;;;;22.73;8.70;;;;;;;6.30;97.85;99414.09;4238621;28;20397;-73
2022/11/04 03:56:08;;;;;;;20.57;8.20;;;;;;;6.32;97.56;99411.28;4245668;28;20236;-73
2022/11/04 03:58:49;;;;;;;20.27;8.50;;;;;;;6.34;97.25;99406.72;4256490;28;20258;-72
2022/11/04 04:01:53;;;;;;;26.97;8.73;;;;;;;6.39;96.89;99414.19;4241755;28;20413;-74
2022/11/04 04:04:28;;;;;;;16.97;7.97;;;;;;;6.40;97.11;99397.38;4246494;28;20316;-72
2022/11/04 04:07:17;;;;;;;17.93;7.30;;;;;;;6.39;97.39;99408.91;4240920;28;20445;-76
2022/11/04 04:09:54;;;;;;;21.37;8.53;;;;;;;6.41;97.71;99423.66;4251130;28;20441;-72
2022/11/04 04:12:30;;;;;;;22.73;7.87;;;;;;;6.39;97.87;99416.84;4260626;28;20320;-73
2022/11/04 04:15:17;;;;;;;25.57;8.40;;;;;;;6.37;97.64;99400.28;4242456;28;25714;-74
2022/11/04 04:17:51;;;;;;;23.63;7.93;;;;;;;6.41;98.10;99412.25;4248990;28;20313;-71
2022/11/04 04:20:20;;;;;;;21.03;8.10;;;;;;;6.41;97.89;99407.78;4237948;28;20231;-72
2022/11/04 04:22:49;;;;;;;19.83;8.10;;;;;;;6.41;98.31;99414.91;4251485;28;20244;-72
2022/11/04 04:28:02;;;;;;;24.57;8.13;;;;;;;6.46;97.67;99415.28;4245707;28;20265;-72
2022/11/04 04:30:29;;;;;;;20.23;7.23;;;;;;;6.49;97.66;99409.75;4253366;28;20289;-72
2022/11/04 04:33:02;;;;;;;21.60;7.47;;;;;;;6.46;97.78;99410.00;4245035;28;21810;-73
2022/11/04 04:35:40;;;;;;;21.87;8.33;;;;;;;6.48;97.76;99421.28;4231410;28;21321;-71
2022/11/04 04:46:39;;;;;;;18.40;7.27;;;;;;;6.51;97.71;99426.28;4248424;28;20705;-74
2022/11/04 04:49:07;;;;;;;19.10;7.83;;;;;;;6.57;97.40;99412.47;4244161;28;21265;-73
2022/11/04 04:51:36;;;;;;;20.17;8.30;;;;;;;6.53;97.05;99417.25;4235580;28;20269;-71
2022/11/04 04:54:02;;;;;;;20.90;7.73;;;;;;;6.50;97.43;99404.28;4253645;28;25663;-72
2022/11/04 04:56:29;;;;;;;23.00;7.57;;;;;;;6.50;97.88;99403.47;4249425;28;20455;-74
2022/11/04 04:58:55;;;;;;;18.93;7.57;;;;;;;6.53;97.57;99409.31;4236530;28;22321;-74
2022/11/04 05:01:22;;;;;;;20.47;7.57;;;;;;;6.52;97.70;99407.63;4247338;28;20945;-73
2022/11/04 05:03:48;;;;;;;19.63;7.47;;;;;;;6.55;97.47;99401.22;4249175;28;21184;-71
2022/11/04 05:06:15;;;;;;;19.00;8.17;;;;;;;6.51;97.93;99405.97;4248317;28;21937;-72
2022/11/04 05:08:42;;;;;;;18.83;7.33;;;;;;;6.53;97.59;99400.53;4247037;28;21265;-73
2022/11/04 05:11:08;;;;;;;19.23;7.57;;;;;;;6.55;97.35;99401.22;4252827;28;20482;-73
2022/11/04 05:13:35;;;;;;;22.80;7.70;;;;;;;6.52;97.36;99402.34;4245829;28;20565;-73
2022/11/04 05:16:04;;;;;;;17.63;7.03;;;;;;;6.56;97.87;99408.19;4246308;28;20329;-73
2022/11/04 05:18:30;;;;;;;19.63;8.17;;;;;;;6.54;97.51;99408.31;4249363;28;20293;-74
2022/11/04 05:20:56;;;;;;;23.70;7.53;;;;;;;6.54;97.46;99403.03;4235482;28;21322;-73
2022/11/04 05:23:23;;;;;;;19.53;7.30;;;;;;;6.62;96.98;99397.00;4241707;28;22884;-72
2022/11/04 05:25:49;;;;;;;21.30;7.83;;;;;;;6.61;96.82;99390.06;4247045;28;20408;-73
2022/11/04 05:28:16;;;;;;;22.60;8.03;;;;;;;6.61;97.08;99386.59;4246615;28;21095;-74
2022/11/04 05:30:43;;;;;;;20.77;7.23;;;;;;;6.63;96.89;99392.59;4247041;28;20244;-72
2022/11/04 05:33:09;;;;;;;23.67;7.83;;;;;;;6.60;97.30;99392.84;4240975;28;20235;-72
2022/11/04 05:35:36;;;;;;;22.57;8.07;;;;;;;6.57;97.38;99393.97;4241700;28;21216;-73
2022/11/04 05:38:03;;;;;;;17.83;7.03;;;;;;;6.61;97.75;99384.78;4266079;28;21650;-73
2022/11/04 05:40:29;;;;;;;21.57;7.83;;;;;;;6.61;97.29;99387.44;4241047;28;20230;-71
2022/11/04 05:42:57;;;;;;;22.80;8.60;;;;;;;6.58;97.68;99385.09;4249155;28;20238;-72
2022/11/04 05:45:24;;;;;;;23.83;8.33;;;;;;;6.67;97.22;99378.06;4248527;28;20240;-72
2022/11/04 05:47:58;;;;;;;19.40;7.80;;;;;;;6.66;96.94;99381.72;4242488;28;20272;-71
2022/11/04 05:50:24;;;;;;;17.93;6.83;;;;;;;6.66;96.80;99377.25;4259938;28;20473;-73
2022/11/04 05:52:51;;;;;;;15.80;7.20;;;;;;;6.65;97.38;99372.09;4265858;28;21629;-76
2022/11/04 05:55:18;;;;;;;19.80;6.93;;;;;;;6.65;96.86;99369.44;4256994;28;22191;-78
2022/11/04 05:57:44;;;;;;;18.57;8.10;;;;;;;6.66;96.90;99366.66;4243355;28;20354;-75
2022/11/04 06:00:11;;;;;;;18.63;7.63;;;;;;;6.74;96.94;99366.78;4254177;28;20231;-77
2022/11/04 06:02:38;;;;;;;22.93;7.63;;;;;;;6.74;96.74;99369.44;4265438;28;20750;-72
2022/11/04 06:05:05;;;;;;;18.60;7.90;;;;;;;6.72;97.17;99362.63;4260325;28;20238;-72
2022/11/04 06:07:32;;;;;;;20.37;6.90;;;;;;;6.74;97.05;99363.28;4276214;28;20281;-74
2022/11/04 06:09:59;;;;;;;18.83;7.70;;;;;;;6.78;96.98;99358.56;4278605;28;20396;-74
2022/11/04 06:12:25;;;;;;;21.83;7.47;;;;;;;6.75;96.81;99354.41;4242158;28;20238;-75
2022/11/04 06:14:52;;;;;;;18.00;6.67;;;;;;;6.79;96.59;99360.22;4265242;28;20236;-77
2022/11/04 06:17:20;;;;;;;19.00;7.47;;;;;;;6.78;96.16;99350.63;4265726;28;20695;-69
2022/11/04 06:19:48;;;;;;;22.37;7.90;;;;;;;6.82;96.64;99349.34;4245485;28;20385;-74
2022/11/04 06:22:16;;;;;;;22.10;7.23;;;;;;;6.91;95.62;99348.47;4250041;28;25460;-72
2022/11/04 06:24:43;;;;;;;21.57;6.87;;;;;;;6.91;95.67;99343.19;4251676;28;20242;-70
2022/11/04 06:27:10;;;;;;;12.67;6.23;;;;;;;6.94;95.19;99345.53;4249902;28;20832;-75
2022/11/04 06:29:39;;;;;;;20.80;7.17;;;;;;;6.97;95.07;99347.84;4250482;28;20232;-69
2022/11/04 06:32:14;;;;;;;18.27;7.47;;;;;;;7.04;94.65;99346.28;4260105;28;25738;-70
2022/11/04 06:34:40;;;;;;;19.37;7.53;;;;;;;7.04;93.94;99350.75;4263628;28;20229;-77
2022/11/04 06:37:08;;;;;;;14.60;6.90;;;;;;;7.04;94.45;99353.38;4235541;28;21802;-71
2022/11/04 06:39:35;;;;;;;20.63;7.10;;;;;;;7.06;94.22;99352.25;4232551;28;23079;-74
2022/11/04 06:42:02;;;;;;;20.47;7.63;;;;;;;7.06;94.47;99336.38;4252940;28;20395;-72
2022/11/04 06:44:29;;;;;;;17.93;6.60;;;;;;;7.08;94.14;99352.13;4251354;28;20230;-72
2022/11/04 06:46:56;;;;;;;18.23;7.17;;;;;;;7.12;94.45;99353.50;4245929;28;20251;-75
2022/11/04 06:49:22;;;;;;;15.37;7.07;;;;;;;7.13;93.84;99355.97;4255190;28;20239;-74
2022/11/04 06:51:49;;;;;;;27.83;8.30;;;;;;;7.13;93.96;99355.97;4249115;28;22990;-78
2022/11/04 06:54:16;;;;;;;21.07;7.27;;;;;;;7.18;94.05;99366.09;4247798;28;21258;-74
2022/11/04 06:56:43;;;;;;;19.47;7.13;;;;;;;7.21;93.30;99349.94;4247302;28;20234;-76
2022/11/04 06:59:17;;;;;;;14.53;6.27;;;;;;;7.15;93.51;99354.00;4252527;28;20242;-75
2022/11/04 07:01:44;;;;;;;15.90;6.83;;;;;;;7.21;93.62;99360.53;4238279;28;20226;-74
2022/11/04 07:04:11;;;;;;;16.60;7.00;;;;;;;7.24;92.92;99359.41;4250363;28;20231;-76
2022/11/04 07:06:40;;;;;;;19.43;7.17;;;;;;;7.29;92.94;99373.00;4242259;28;26264;-73
2022/11/04 07:09:11;;;;;;;27.70;7.13;;;;;;;7.30;92.57;99358.78;4262001;28;20231;-73
2022/11/04 07:11:38;;;;;;;20.43;6.90;;;;;;;7.23;92.25;99358.53;4260312;28;20242;-71
2022/11/04 07:14:05;;;;;;;20.40;7.40;;;;;;;7.23;92.90;99360.38;4242396;28;20243;-72
2022/11/04 07:16:31;;;;;;;15.73;6.80;;;;;;;7.28;92.79;99355.44;4244061;28;21491;-72
2022/11/04 07:18:58;;;;;;;19.90;7.27;;;;;;;7.29;92.72;99362.41;4255163;28;20478;-77
2022/11/04 07:21:24;;;;;;;26.47;8.07;;;;;;;7.33;92.03;99363.78;4240090;28;20258;-70
2022/11/04 07:23:51;;;;;;;20.03;7.33;;;;;;;7.44;92.06;99368.00;4248229;28;20298;-74
2022/11/04 07:26:17;;;;;;;19.00;7.47;;;;;;;7.44;91.69;99366.19;4247228;28;20234;-71
2022/11/04 07:28:44;;;;;;;22.47;7.63;;;;;;;7.38;91.71;99357.06;4278333;28;22165;-72
2022/11/04 07:31:12;;;;;;;15.03;6.73;;;;;;;7.46;91.98;99352.81;4258461;28;20400;-71
2022/11/04 07:33:39;;;;;;;25.07;8.00;;;;;;;7.55;91.50;99354.56;4242041;28;20233;-71
2022/11/04 07:36:09;;;;;;;18.10;7.20;;;;;;;7.72;91.05;99352.88;4248399;28;20231;-69
2022/11/04 07:38:35;;;;;;;24.50;7.67;;;;;;;7.78;90.26;99355.75;4269514;28;21920;-72
2022/11/04 07:41:02;;;;;;;18.57;7.77;;;;;;;7.73;89.92;99360.66;4233707;28;20235;-73
2022/11/04 07:43:29;;;;;;;19.30;6.83;;;;;;;7.77;89.95;99355.88;4252589;28;20405;-72
2022/11/04 07:46:04;;;;;;;18.73;7.10;;;;;;;7.79;90.21;99349.44;4246043;28;23740;-72
2022/11/04 07:48:30;;;;;;;13.03;6.53;;;;;;;7.83;89.96;99349.97;4234263;28;20502;-74
2022/11/04 07:50:58;;;;;;;19.00;8.03;;;;;;;7.93;90.09;99345.41;4253380;28;23251;-73
2022/11/04 07:53:26;;;;;;;16.80;7.67;;;;;;;8.02;89.50;99352.44;4246786;28;20234;-73
2022/11/04 07:55:53;;;;;;;18.67;8.03;;;;;;;7.95;89.59;99346.09;4233482;28;20301;-76
2022/11/04 07:58:21;;;;;;;17.43;7.70;;;;;;;7.97;90.00;99338.00;4240519;28;20228;-73
2022/11/04 08:00:48;;;;;;;18.63;7.20;;;;;;;7.99;89.34;99339.50;4258245;28;21330;-73
2022/11/04 08:03:15;;;;;;;20.37;6.87;;;;;;;7.93;89.46;99334.81;4248864;28;20234;-72
2022/11/04 08:05:41;;;;;;;17.80;8.20;;;;;;;7.97;89.96;99333.53;4226365;28;20236;-74
2022/11/04 08:08:08;;;;;;;17.60;7.57;;;;;;;7.97;89.72;99328.22;4241995;28;22885;-71
2022/11/04 08:10:35;;;;;;;17.10;7.60;;;;;;;7.91;89.74;99326.19;4255261;28;20388;-73
2022/11/04 08:13:02;;;;;;;17.97;8.00;;;;;;;7.89;89.64;99317.59;4241292;28;20303;-71
2022/11/04 08:15:29;;;;;;;20.07;8.20;;;;;;;8.00;90.04;99317.31;4263897;28;22715;-80
2022/11/04 08:17:55;;;;;;;16.37;7.17;;;;;;;7.91;90.14;99320.88;4261583;28;20230;-72
2022/11/04 08:20:22;;;;;;;15.53;7.93;;;;;;;7.97;89.95;99317.63;4246465;28;21931;-75
2022/11/04 08:22:48;;;;;;;19.80;7.97;;;;;;;7.95;90.11;99311.66;4242019;28;20365;-79
2022/11/04 08:25:15;;;;;;;17.93;7.60;;;;;;;7.91;90.24;99312.13;4252657;28;20218;-70
2022/11/04 08:27:42;;;;;;;19.20;7.63;;;;;;;7.92;90.39;99316.44;4257202;28;20232;-71
2022/11/04 08:30:09;;;;;;;18.17;7.93;;;;;;;7.95;90.43;99311.66;4246189;28;21739;-71
2022/11/04 08:32:36;;;;;;;16.47;7.67;;;;;;;7.94;90.22;99307.34;4246473;28;20342;-72
2022/11/04 08:35:02;;;;;;;16.60;7.60;;;;;;;8.02;90.28;99306.56;4256110;28;20241;-73
2022/11/04 08:37:29;;;;;;;19.20;8.10;;;;;;;7.93;90.41;99300.38;4241386;28;20326;-73
2022/11/04 08:39:55;;;;;;;23.83;8.07;;;;;;;7.92;90.50;99303.19;4252520;28;20243;-72
2022/11/04 08:42:22;;;;;;;20.53;8.10;;;;;;;7.96;89.92;99300.09;4236259;28;20226;-73
2022/11/04 08:44:52;;;;;;;24.00;8.57;;;;;;;7.94;90.30;99294.09;4232527;28;26266;-72
2022/11/04 08:47:19;;;;;;;21.70;9.20;;;;;;;7.97;90.00;99299.09;4248151;28;21320;-71
2022/11/04 08:49:45;;;;;;;19.97;8.67;;;;;;;7.97;89.59;99288.50;4241750;28;22257;-73
2022/11/04 08:52:12;;;;;;;18.27;8.00;;;;;;;7.99;89.58;99289.16;4241710;28;20227;-68
2022/11/04 08:54:38;;;;;;;22.73;9.40;;;;;;;7.99;89.58;99291.81;4246809;28;20317;-71
2022/11/04 08:57:05;;;;;;;19.40;8.57;;;;;;;8.06;89.55;99291.19;4249887;28;20255;-72
2022/11/04 08:59:31;;;;;;;20.13;8.10;;;;;;;8.10;89.23;99292.53;4245371;28;20241;-72
2022/11/04 09:01:58;;;;;;;24.00;8.00;;;;;;;8.08;89.51;99283.91;4238837;28;20302;-71
2022/11/04 09:04:24;;;;;;;20.13;8.27;;;;;;;8.13;89.22;99287.75;4248124;28;20240;-71
2022/11/04 09:06:52;;;;;;;21.73;9.27;;;;;;;8.15;90.42;99290.25;4256750;28;20227;-63
2022/11/04 09:09:18;;;;;;;18.50;7.67;;;;;;;8.25;88.78;99286.47;4236238;28;21837;-72
2022/11/04 09:11:45;;;;;;;19.60;8.77;;;;;;;8.31;88.82;99290.34;4239707;28;20235;-72
2022/11/04 09:14:12;;;;;;;22.30;9.03;;;;;;;8.48;87.85;99295.75;4256427;28;20770;-69
2022/11/04 09:16:40;;;;;;;21.23;7.67;;;;;;;8.42;87.10;99284.75;4249296;28;20289;-71
2022/11/04 09:19:06;;;;;;;21.80;9.10;;;;;;;8.43;88.01;99282.97;4251224;28;20592;-70
2022/11/04 09:21:33;;;;;;;21.33;7.80;;;;;;;8.50;86.92;99288.44;4265111;28;20238;-72
2022/11/04 09:24:00;;;;;;;23.77;8.10;;;;;;;8.48;87.57;99279.84;4246036;28;20234;-72
2022/11/04 09:26:28;;;;;;;19.87;8.20;;;;;;;8.55;87.78;99280.84;4245420;28;20269;-71
2022/11/04 09:28:56;;;;;;;21.87;8.20;;;;;;;8.65;87.39;99286.84;4243683;28;20318;-74
2022/11/04 09:31:24;;;;;;;16.30;8.43;;;;;;;8.71;87.32;99288.88;4233993;28;21481;-70
2022/11/04 09:33:50;;;;;;;23.67;8.53;;;;;;;8.74;87.63;99280.56;4224940;28;20239;-73
2022/11/04 09:36:17;;;;;;;21.67;7.67;;;;;;;8.81;87.25;99276.28;4262387;28;20284;-72
2022/11/04 09:38:44;;;;;;;18.57;8.07;;;;;;;8.78;87.52;99281.91;4253167;28;26192;-71
2022/11/04 09:41:29;;;;;;;21.97;8.00;;;;;;;8.83;87.30;99276.94;4239648;28;20276;-73
2022/11/04 09:44:11;;;;;;;24.53;8.40;;;;;;;8.86;87.11;99286.41;4260121;28;23011;-72
2022/11/04 09:46:38;;;;;;;24.90;8.03;;;;;;;8.87;86.62;99274.78;4256662;28;25622;-72
2022/11/04 09:49:08;;;;;;;21.00;7.80;;;;;;;8.94;86.00;99267.84;4246172;28;20597;-70
2022/11/04 09:51:35;;;;;;;19.70;8.37;;;;;;;8.99;85.49;99262.91;4257947;28;21624;-70
2022/11/04 09:54:32;;;;;;;22.60;8.03;;;;;;;9.07;84.71;99257.59;4240637;28;21057;-74
2022/11/04 09:57:00;;;;;;;17.67;8.20;;;;;;;9.12;84.87;99256.28;4264647;28;20307;-70
2022/11/04 09:59:29;;;;;;;20.60;7.67;;;;;;;9.34;84.11;99260.94;4242950;28;20952;-73
2022/11/04 10:02:05;;;;;;;18.83;8.53;;;;;;;9.42;82.53;99257.44;4246012;28;20412;-74
2022/11/04 10:04:47;;;;;;;21.27;8.40;;;;;;;9.55;82.82;99260.41;4258064;28;26599;-71
2022/11/04 10:07:47;;;;;;;18.23;7.77;;;;;;;9.68;80.43;99259.91;4245010;28;20349;-76
2022/11/04 10:10:17;;;;;;;19.63;7.70;;;;;;;9.68;81.73;99246.63;4266163;28;25623;-75
2022/11/04 10:13:03;;;;;;;18.40;7.63;;;;;;;9.79;80.94;99246.28;4257152;28;20318;-70
2022/11/04 10:15:35;;;;;;;21.80;7.63;;;;;;;9.92;79.52;99253.72;4251356;28;20470;-73
2022/11/04 10:18:10;;;;;;;21.87;8.20;;;;;;;10.05;80.52;99240.72;4252104;28;20349;-72
2022/11/04 10:21:03;;;;;;;15.20;7.80;;;;;;;10.20;78.60;99250.63;4273441;28;20284;-71
2022/11/04 10:23:44;;;;;;;17.53;8.23;;;;;;;10.29;78.25;99239.00;4246036;28;20391;-72
2022/11/04 10:26:16;;;;;;;16.57;7.57;;;;;;;10.17;78.11;99240.34;4253981;28;20245;-70
2022/11/04 10:29:07;;;;;;;16.60;7.67;;;;;;;10.42;77.53;99241.94;4245511;28;20364;-71
2022/11/04 10:31:36;;;;;;;24.43;8.27;;;;;;;10.74;76.67;99235.59;4260193;28;20226;-75
2022/11/04 10:34:07;;;;;;;20.23;7.57;;;;;;;10.73;75.75;99236.63;4263008;28;21272;-73
2022/11/04 10:36:34;;;;;;;19.97;8.13;;;;;;;10.83;75.56;99238.22;4217204;28;20303;-74
2022/11/04 10:39:03;;;;;;;23.17;8.30;;;;;;;11.14;74.31;99227.50;4241170;28;25311;-77
2022/11/04 10:41:37;;;;;;;19.30;7.67;;;;;;;11.43;74.05;99226.78;4257916;28;21208;-70
2022/11/04 10:44:13;;;;;;;20.10;7.73;;;;;;;11.63;71.97;99224.41;4248867;28;22355;-69
2022/11/04 10:46:51;;;;;;;16.93;7.43;;;;;;;11.71;70.95;99219.03;4224260;28;21844;-72
2022/11/04 10:49:28;;;;;;;16.40;7.57;;;;;;;11.88;70.60;99213.56;4234094;28;20247;-69
2022/11/04 10:51:55;;;;;;;18.57;7.33;;;;;;;11.67;71.01;99215.06;4262376;28;20236;-72
2022/11/04 10:54:24;;;;;;;20.80;8.83;;;;;;;11.33;71.77;99211.06;4262448;28;20542;-73
2022/11/04 10:56:53;;;;;;;23.47;8.10;;;;;;;11.52;72.16;99203.53;4233044;28;21775;-72
2022/11/04 10:59:34;;;;;;;24.13;9.20;;;;;;;11.45;72.69;99206.13;4256539;28;20527;-71
2022/11/04 11:02:01;;;;;;;18.63;7.70;;;;;;;11.71;71.38;99207.53;4248912;28;21761;-71
2022/11/04 11:04:30;;;;;;;18.63;7.27;;;;;;;11.51;71.34;99202.72;4254305;28;20222;-78
2022/11/04 11:06:59;;;;;;;17.83;7.80;;;;;;;11.41;72.71;99210.16;4240302;28;24480;-71
2022/11/04 11:09:31;;;;;;;20.70;8.43;;;;;;;11.30;72.68;99197.28;4265401;28;20424;-71
2022/11/04 11:12:02;;;;;;;20.77;8.90;;;;;;;11.53;71.98;99200.72;4252335;28;20419;-71
2022/11/04 11:14:40;;;;;;;21.07;7.83;;;;;;;11.39;72.11;99205.00;4252775;28;20293;-70
2022/11/04 11:17:13;;;;;;;26.73;8.73;;;;;;;11.44;72.65;99195.66;4248435;28;21066;-73
2022/11/04 11:20:03;;;;;;;18.63;7.90;;;;;;;11.70;71.83;99198.69;4257675;28;20246;-73
2022/11/04 11:22:42;;;;;;;17.43;7.67;;;;;;;11.60;72.11;99180.31;4291224;28;20548;-71
2022/11/04 11:25:13;;;;;;;25.00;8.93;;;;;;;11.83;71.56;99185.56;4233850;28;20238;-77
2022/11/04 11:27:44;;;;;;;23.53;8.53;;;;;;;12.01;69.81;99181.72;4286680;28;20313;-72
2022/11/04 11:30:22;;;;;;;19.70;8.27;;;;;;;12.04;70.39;99192.03;4244246;28;20917;-73
2022/11/04 11:32:57;;;;;;;17.03;7.93;;;;;;;12.21;70.32;99190.81;4244368;28;20235;-70
2022/11/04 11:35:28;;;;;;;22.00;8.07;;;;;;;12.40;69.47;99185.91;4240104;28;20233;-70
2022/11/04 11:37:55;;;;;;;14.83;7.17;;;;;;;12.34;68.16;99183.97;4240212;28;20235;-69
2022/11/04 11:40:27;;;;;;;18.77;7.80;;;;;;;12.28;68.65;99192.75;4241607;28;22554;-68
2022/11/04 11:42:54;;;;;;;19.47;7.60;;;;;;;12.29;68.70;99186.38;4240045;28;23588;-69
2022/11/04 11:45:22;;;;;;;18.83;7.57;;;;;;;12.14;69.18;99175.75;4242623;28;21768;-71
2022/11/04 11:47:53;;;;;;;17.17;7.53;;;;;;;12.30;69.25;99170.22;4246144;28;20236;-72
2022/11/04 11:50:33;;;;;;;17.93;7.37;;;;;;;12.46;68.14;99171.81;4240538;28;20866;-72
2022/11/04 11:53:15;;;;;;;17.27;6.80;;;;;;;12.42;68.56;99170.53;4243920;28;20469;-73
2022/11/04 11:55:47;;;;;;;18.13;7.43;;;;;;;12.51;67.94;99172.09;4245551;28;20309;-72
2022/11/04 11:58:13;;;;;;;17.23;7.27;;;;;;;12.61;68.38;99167.25;4247996;28;20226;-70
2022/11/04 12:01:05;;;;;;;17.30;6.53;;;;;;;12.67;65.90;99171.84;4252621;28;20241;-73
2022/11/04 12:03:46;;;;;;;18.90;6.77;;;;;;;12.86;66.17;99175.72;4243539;28;21752;-71
2022/11/04 12:07:11;;;;;;;18.67;8.00;;;;;;;12.74;64.42;99177.25;4240087;28;20234;-65
2022/11/04 12:10:06;;;;;;;16.40;6.80;;;;;;;12.74;65.40;99163.91;4257290;28;20308;-72
2022/11/04 12:13:18;;;;;;;21.63;7.97;;;;;;;12.56;65.01;99172.34;4251124;28;20510;-72
2022/11/04 12:16:00;;;;;;;21.33;7.10;;;;;;;12.54;65.38;99168.22;4252596;28;22267;-69
2022/11/04 12:18:51;;;;;;;15.40;6.23;;;;;;;12.42;65.46;99167.88;4255805;28;20591;-73